createdAt,value
2022-11-28T00:01:21.698Z,-0.79
2022-11-28T00:03:48.408Z,-0.82
2022-11-28T00:06:15.705Z,-0.86
2022-11-28T00:08:42.813Z,-0.82
2022-11-28T00:11:11.478Z,-0.84
2022-11-28T00:13:38.651Z,-0.91
2022-11-28T00:16:06.999Z,-0.90
2022-11-28T00:18:33.708Z,-0.84
2022-11-28T00:21:06.286Z,-0.85
2022-11-28T00:23:33.502Z,-0.84
2022-11-28T00:26:06.294Z,-0.75
2022-11-28T00:28:33.114Z,-0.81
2022-11-28T00:30:59.739Z,-0.70
2022-11-28T00:33:26.315Z,-0.75
2022-11-28T00:36:02.426Z,-0.80
2022-11-28T00:38:29.663Z,-0.81
2022-11-28T00:41:07.725Z,-0.86
2022-11-28T00:43:34.575Z,-0.83
2022-11-28T00:46:01.740Z,-0.83
2022-11-28T00:48:28.445Z,-0.89
2022-11-28T00:50:56.103Z,-0.91
2022-11-28T00:53:22.706Z,-0.93
2022-11-28T00:55:49.365Z,-0.95
2022-11-28T00:58:15.959Z,-0.91
2022-11-28T01:00:42.724Z,-0.97
2022-11-28T01:03:09.423Z,-0.93
2022-11-28T01:05:41.169Z,-0.97
2022-11-28T01:08:07.979Z,-1.01
2022-11-28T01:10:34.554Z,-1.10
2022-11-28T01:13:01.184Z,-1.08
2022-11-28T01:15:27.890Z,-1.05
2022-11-28T01:17:54.487Z,-1.05
2022-11-28T01:20:21.075Z,-1.04
2022-11-28T01:22:47.767Z,-0.99
2022-11-28T01:25:14.303Z,-0.95
2022-11-28T01:27:40.869Z,-0.90
2022-11-28T01:30:08.087Z,-0.85
2022-11-28T01:32:34.709Z,-0.85
2022-11-28T01:35:01.241Z,-0.83
2022-11-28T01:37:30.107Z,-0.77
2022-11-28T01:39:56.704Z,-0.79
2022-11-28T01:42:23.562Z,-0.81
2022-11-28T01:44:50.101Z,-0.74
2022-11-28T01:47:21.501Z,-0.62
2022-11-28T01:49:50.060Z,-0.59
2022-11-28T01:52:18.925Z,-0.53
2022-11-28T01:54:50.599Z,-0.57
2022-11-28T01:57:20.277Z,-0.55
2022-11-28T01:59:56.571Z,-0.64
2022-11-28T02:02:40.375Z,-0.65
2022-11-28T02:05:07.679Z,-0.62
2022-11-28T02:07:35.932Z,-0.59
2022-11-28T02:10:05.900Z,-0.62
2022-11-28T02:13:07.919Z,-0.56
2022-11-28T02:15:55.727Z,-0.56
2022-11-28T02:18:40.581Z,-0.55
2022-11-28T02:21:26.280Z,-0.60
2022-11-28T02:24:17.048Z,-0.58
2022-11-28T02:27:25.891Z,-0.61
2022-11-28T02:29:58.102Z,-0.66
2022-11-28T02:32:43.312Z,-0.65
2022-11-28T02:35:15.869Z,-0.61
2022-11-28T02:38:04.150Z,-0.66
2022-11-28T02:41:08.885Z,-0.70
2022-11-28T02:43:50.297Z,-0.63
2022-11-28T02:46:19.011Z,-0.62
2022-11-28T02:48:55.303Z,-0.58
2022-11-28T02:51:28.919Z,-0.53
2022-11-28T02:53:56.859Z,-0.52
2022-11-28T02:56:25.350Z,-0.47
2022-11-28T02:58:52.471Z,-0.54
2022-11-28T03:01:24.506Z,-0.51
2022-11-28T03:04:18.536Z,-0.54
2022-11-28T03:06:53.511Z,-0.51
2022-11-28T03:09:43.234Z,-0.54
2022-11-28T03:12:45.992Z,-0.48
2022-11-28T03:15:17.787Z,-0.51
2022-11-28T03:17:44.281Z,-0.53
2022-11-28T03:20:20.075Z,-0.56
2022-11-28T03:22:52.595Z,-0.66
2022-11-28T03:25:40.695Z,-0.65
2022-11-28T03:28:24.873Z,-0.44
2022-11-28T03:31:02.756Z,-0.48
2022-11-28T03:33:34.658Z,-0.56
2022-11-28T03:36:07.023Z,-0.62
2022-11-28T03:38:42.372Z,-0.68
2022-11-28T03:41:17.035Z,-0.68
2022-11-28T03:43:49.655Z,-0.64
2022-11-28T03:46:20.344Z,-0.65
2022-11-28T03:48:51.127Z,-0.59
2022-11-28T03:51:32.912Z,-0.59
2022-11-28T03:54:10.381Z,-0.63
2022-11-28T03:57:00.084Z,-0.53
2022-11-28T03:59:34.580Z,-0.57
2022-11-28T04:02:25.070Z,-0.54
2022-11-28T04:04:57.487Z,-0.49
2022-11-28T04:07:27.045Z,-0.45
2022-11-28T04:10:08.881Z,-0.52
2022-11-28T04:13:00.475Z,-0.52
2022-11-28T04:15:30.985Z,-0.58
2022-11-28T04:18:12.353Z,-0.62
2022-11-28T04:20:44.542Z,-0.60
2022-11-28T04:23:15.119Z,-0.65
2022-11-28T04:25:48.026Z,-0.60
2022-11-28T04:28:20.288Z,-0.54
2022-11-28T04:30:50.497Z,-0.49
2022-11-28T04:33:21.641Z,-0.44
2022-11-28T04:35:52.061Z,-0.43
2022-11-28T04:38:20.986Z,-0.34
2022-11-28T04:41:00.433Z,-0.29
2022-11-28T04:43:32.221Z,-0.20
2022-11-28T04:46:03.198Z,-0.12
2022-11-28T04:48:34.273Z,0.07
2022-11-28T04:51:22.937Z,0.16
2022-11-28T04:54:22.844Z,0.02
2022-11-28T04:56:59.867Z,0.07
2022-11-28T04:59:28.496Z,0.13
2022-11-28T05:01:58.312Z,0.18
2022-11-28T05:04:25.130Z,0.23
2022-11-28T05:07:02.295Z,0.17
2022-11-28T05:09:28.905Z,0.18
2022-11-28T05:11:55.459Z,0.17
2022-11-28T05:14:22.223Z,0.25
2022-11-28T05:16:49.467Z,0.16
2022-11-28T05:19:16.286Z,0.25
2022-11-28T05:21:43.053Z,0.14
2022-11-28T05:24:09.692Z,0.13
2022-11-28T05:26:38.156Z,0.10
2022-11-28T05:29:05.804Z,0.03
2022-11-28T05:31:32.562Z,0.07
2022-11-28T05:33:59.285Z,0.05
2022-11-28T05:36:25.828Z,0.01
2022-11-28T05:38:52.372Z,-0.03
2022-11-28T05:41:22.102Z,-0.11
2022-11-28T05:43:49.220Z,-0.13
2022-11-28T05:46:15.983Z,-0.16
2022-11-28T05:48:42.624Z,-0.16
2022-11-28T05:51:09.227Z,-0.14
2022-11-28T05:53:36.325Z,-0.09
2022-11-28T05:56:14.597Z,-0.11
2022-11-28T05:58:41.208Z,-0.14
2022-11-28T06:01:12.456Z,-0.10
2022-11-28T06:03:39.405Z,-0.11
2022-11-28T06:06:11.330Z,-0.11
2022-11-28T06:08:37.900Z,-0.06
2022-11-28T06:11:04.713Z,0.00
2022-11-28T06:13:31.356Z,0.05
2022-11-28T06:15:57.956Z,0.23
2022-11-28T06:18:24.524Z,0.16
2022-11-28T06:20:51.089Z,0.14
2022-11-28T06:23:17.803Z,0.19
2022-11-28T06:25:44.502Z,0.21
2022-11-28T06:28:11.055Z,0.25
2022-11-28T06:30:37.713Z,0.41
2022-11-28T06:33:04.363Z,0.30
2022-11-28T06:35:30.922Z,0.22
2022-11-28T06:37:57.493Z,0.22
2022-11-28T06:40:24.065Z,0.35
2022-11-28T06:42:51.143Z,0.33
2022-11-28T06:45:18.946Z,0.29
2022-11-28T06:47:45.528Z,0.31
2022-11-28T06:50:12.388Z,0.33
2022-11-28T06:52:38.974Z,0.33
2022-11-28T06:55:05.853Z,0.50
2022-11-28T06:57:32.848Z,0.76
2022-11-28T06:59:59.405Z,0.68
2022-11-28T07:02:27.544Z,0.59
2022-11-28T07:04:54.195Z,0.54
2022-11-28T07:07:20.822Z,0.56
2022-11-28T07:09:47.437Z,0.59
2022-11-28T07:12:14.340Z,0.58
2022-11-28T07:14:40.880Z,0.63
2022-11-28T07:17:07.489Z,0.66
2022-11-28T07:19:34.387Z,0.74
2022-11-28T07:22:01.045Z,0.78
2022-11-28T07:24:27.635Z,0.81
2022-11-28T07:26:54.214Z,0.86
2022-11-28T07:29:20.788Z,0.86
2022-11-28T07:31:47.466Z,0.86
2022-11-28T07:34:14.243Z,0.79
2022-11-28T07:36:40.799Z,0.81
2022-11-28T07:39:08.799Z,0.83
2022-11-28T07:41:35.678Z,0.80
2022-11-28T07:44:03.921Z,0.85
2022-11-28T07:46:31.946Z,0.89
2022-11-28T07:48:58.653Z,0.88
2022-11-28T07:51:28.197Z,1.02
2022-11-28T07:53:55.637Z,1.02
2022-11-28T07:56:24.888Z,1.02
2022-11-28T07:58:51.726Z,1.00
2022-11-28T08:01:21.268Z,1.07
2022-11-28T08:03:48.666Z,1.11
2022-11-28T08:06:17.372Z,1.14
2022-11-28T08:11:40.025Z,1.26
2022-11-28T08:14:06.751Z,1.28
2022-11-28T08:16:33.578Z,1.27
2022-11-28T08:19:01.459Z,1.30
2022-11-28T08:21:31.323Z,1.32
2022-11-28T08:24:02.719Z,1.38
2022-11-28T08:26:31.333Z,1.38
2022-11-28T08:28:59.626Z,1.23
2022-11-28T08:31:35.921Z,1.19
2022-11-28T08:34:05.674Z,1.28
2022-11-28T08:36:32.587Z,1.35
2022-11-28T08:39:22.868Z,1.33
2022-11-28T08:41:47.713Z,1.38
2022-11-28T08:44:14.250Z,1.33
2022-11-28T08:46:41.071Z,1.36
2022-11-28T08:49:07.732Z,1.43
2022-11-28T08:51:34.382Z,1.49
2022-11-28T08:54:00.942Z,1.59
2022-11-28T08:56:27.911Z,1.65
2022-11-28T08:58:54.976Z,1.74
2022-11-28T09:01:24.399Z,1.77
2022-11-28T09:03:52.073Z,1.77
2022-11-28T09:06:20.516Z,1.87
2022-11-28T09:08:48.352Z,1.96
2022-11-28T09:11:17.371Z,1.97
2022-11-28T09:13:44.665Z,2.03
2022-11-28T09:16:11.687Z,2.07
2022-11-28T09:18:38.366Z,2.17
2022-11-28T09:21:09.847Z,2.17
2022-11-28T09:23:37.487Z,2.29
2022-11-28T09:26:21.365Z,2.39
2022-11-28T09:28:48.691Z,2.52
2022-11-28T09:31:17.564Z,2.60
2022-11-28T09:33:45.164Z,2.61
2022-11-28T09:36:14.639Z,2.70
2022-11-28T09:38:41.613Z,2.75
2022-11-28T09:41:31.800Z,2.75
2022-11-28T09:44:06.850Z,2.76
2022-11-28T09:46:37.344Z,2.66
2022-11-28T09:49:35.286Z,2.58
2022-11-28T09:52:21.296Z,2.50
2022-11-28T09:54:55.030Z,2.57
2022-11-28T09:57:37.483Z,2.79
2022-11-28T10:00:06.315Z,2.89
2022-11-28T10:02:49.349Z,3.01
2022-11-28T10:05:19.028Z,3.05
2022-11-28T10:08:12.424Z,2.94
2022-11-28T10:10:44.066Z,2.90
2022-11-28T10:13:20.531Z,3.00
2022-11-28T10:16:17.605Z,3.13
2022-11-28T10:18:44.263Z,3.26
2022-11-28T10:21:23.036Z,3.35
2022-11-28T10:23:52.221Z,3.40
2022-11-28T10:26:36.010Z,3.52
2022-11-28T10:29:13.727Z,3.64
2022-11-28T10:31:44.660Z,3.69
2022-11-28T10:34:19.695Z,3.72
2022-11-28T10:37:00.886Z,3.68
2022-11-28T10:39:27.796Z,3.68
2022-11-28T10:42:15.281Z,3.77
2022-11-28T10:44:59.949Z,3.88
2022-11-28T10:47:35.377Z,3.94
2022-11-28T10:50:16.505Z,3.98
2022-11-28T10:52:51.447Z,4.09
2022-11-28T10:55:34.346Z,4.14
2022-11-28T10:58:00.855Z,4.20
2022-11-28T11:00:27.451Z,4.25
2022-11-28T11:02:56.371Z,4.26
2022-11-28T11:05:30.537Z,4.35
2022-11-28T11:08:26.210Z,4.37
2022-11-28T11:11:17.529Z,4.45
2022-11-28T11:14:08.526Z,4.47
2022-11-28T11:16:56.892Z,4.55
2022-11-28T11:19:36.220Z,4.63
2022-11-28T11:22:05.581Z,4.65
2022-11-28T11:24:32.295Z,4.66
2022-11-28T11:27:30.241Z,4.71
2022-11-28T11:30:01.616Z,4.66
2022-11-28T11:32:31.131Z,4.73
2022-11-28T11:34:59.521Z,4.67
2022-11-28T11:37:51.205Z,4.73
2022-11-28T11:40:29.085Z,4.80
2022-11-28T11:43:00.531Z,4.70
2022-11-28T11:45:34.785Z,4.72
2022-11-28T11:48:02.515Z,4.69
2022-11-28T11:50:33.061Z,4.75
2022-11-28T11:53:14.973Z,4.71
2022-11-28T11:55:49.492Z,4.71
2022-11-28T11:58:26.414Z,4.70
2022-11-28T12:00:56.447Z,4.72
2022-11-28T12:03:39.408Z,4.83
2022-11-28T12:06:32.543Z,4.83
2022-11-28T12:09:26.613Z,4.88
2022-11-28T12:11:59.437Z,4.94
2022-11-28T12:14:27.926Z,5.00
2022-11-28T12:17:19.529Z,4.97
2022-11-28T12:20:18.775Z,5.02
2022-11-28T12:22:58.348Z,5.03
2022-11-28T12:25:31.323Z,5.02
2022-11-28T12:28:58.730Z,5.04
2022-11-28T12:32:02.660Z,5.02
2022-11-28T12:34:39.155Z,4.99
2022-11-28T12:38:09.161Z,5.08
2022-11-28T12:40:50.009Z,5.09
2022-11-28T12:43:52.151Z,5.14
2022-11-28T12:46:36.723Z,5.22
2022-11-28T12:49:29.031Z,5.33
2022-11-28T12:52:17.256Z,5.40
2022-11-28T12:55:17.346Z,5.47
2022-11-28T12:57:53.248Z,5.48
2022-11-28T13:00:22.623Z,5.36
2022-11-28T13:03:11.361Z,5.41
2022-11-28T13:05:51.531Z,5.36
2022-11-28T13:08:53.654Z,5.48
2022-11-28T13:11:23.117Z,5.53
2022-11-28T13:13:56.365Z,5.56
2022-11-28T13:16:30.117Z,5.61
2022-11-28T13:19:00.267Z,5.61
2022-11-28T13:21:47.056Z,5.64
2022-11-28T13:24:13.585Z,5.67
2022-11-28T13:26:46.392Z,5.74
2022-11-28T13:29:31.580Z,5.72
2022-11-28T13:32:04.361Z,5.72
2022-11-28T13:34:31.816Z,5.74
2022-11-28T13:40:38.528Z,5.72
2022-11-28T13:43:11.028Z,5.70
2022-11-28T13:45:42.722Z,5.75
2022-11-28T13:51:33.260Z,5.74
2022-11-28T13:54:19.165Z,5.71
2022-11-28T13:56:48.613Z,5.67
2022-11-28T13:59:22.476Z,5.66
2022-11-28T14:01:57.423Z,5.62
2022-11-28T14:04:25.013Z,5.59
2022-11-28T14:06:59.080Z,5.50
2022-11-28T14:09:35.718Z,5.47
2022-11-28T14:12:21.408Z,5.41
2022-11-28T14:15:00.228Z,5.42
2022-11-28T14:18:14.254Z,5.41
2022-11-28T14:20:58.989Z,5.38
2022-11-28T14:23:50.501Z,5.37
2022-11-28T14:26:33.447Z,5.35
2022-11-28T14:29:01.138Z,5.33
2022-11-28T14:31:35.265Z,5.31
2022-11-28T14:34:57.091Z,5.27
2022-11-28T14:37:28.505Z,5.23
2022-11-28T14:39:57.352Z,5.17
2022-11-28T14:45:43.647Z,5.13
2022-11-28T14:48:23.238Z,5.12
2022-11-28T14:50:57.572Z,5.16
2022-11-28T14:53:34.365Z,5.08
2022-11-28T14:56:11.544Z,5.03
2022-11-28T14:58:38.736Z,4.97
2022-11-28T15:01:13.120Z,4.93
2022-11-28T15:03:59.193Z,4.90
2022-11-28T15:06:36.880Z,4.86
2022-11-28T15:09:09.902Z,4.84
2022-11-28T15:11:58.857Z,4.80
2022-11-28T15:14:28.773Z,4.80
2022-11-28T15:17:00.452Z,4.75
2022-11-28T15:19:39.000Z,4.73
2022-11-28T15:22:05.829Z,4.71
2022-11-28T15:24:35.639Z,4.70
2022-11-28T15:27:08.857Z,4.68
2022-11-28T15:29:36.892Z,4.66
2022-11-28T15:32:05.026Z,4.65
2022-11-28T15:34:33.503Z,4.64
2022-11-28T15:37:03.624Z,4.61
2022-11-28T15:39:40.289Z,4.62
2022-11-28T15:42:22.572Z,4.60
2022-11-28T15:44:57.353Z,4.57
2022-11-28T15:47:25.521Z,4.54
2022-11-28T15:50:13.595Z,4.52
2022-11-28T15:52:40.655Z,4.51
2022-11-28T15:55:16.774Z,4.47
2022-11-28T15:57:43.444Z,4.45
2022-11-28T16:00:17.783Z,4.45
2022-11-28T16:02:45.604Z,4.45
2022-11-28T16:05:20.868Z,4.44
2022-11-28T16:07:50.233Z,4.42
2022-11-28T16:10:23.974Z,4.43
2022-11-28T16:13:00.614Z,4.40
2022-11-28T16:15:28.422Z,4.38
2022-11-28T16:17:55.979Z,4.39
2022-11-28T16:20:26.658Z,4.33
2022-11-28T16:22:59.586Z,4.28
2022-11-28T16:25:27.258Z,4.23
2022-11-28T16:27:56.443Z,4.24
2022-11-28T16:30:23.103Z,4.22
2022-11-28T16:32:55.351Z,4.19
2022-11-28T16:35:38.844Z,4.14
2022-11-28T16:38:25.323Z,4.09
2022-11-28T16:41:00.601Z,4.10
2022-11-28T16:43:35.815Z,4.06
2022-11-28T16:46:06.681Z,4.04
2022-11-28T16:48:38.656Z,4.02
2022-11-28T16:51:11.016Z,4.03
2022-11-28T16:53:59.522Z,4.03
2022-11-28T16:56:29.312Z,4.03
2022-11-28T16:59:07.922Z,4.05
2022-11-28T17:01:35.862Z,4.05
2022-11-28T17:04:02.870Z,4.13
2022-11-28T17:06:36.871Z,4.07
2022-11-28T17:09:08.791Z,4.02
2022-11-28T17:11:38.658Z,3.95
2022-11-28T17:14:10.103Z,3.90
2022-11-28T17:16:41.373Z,3.84
2022-11-28T17:19:08.448Z,3.81
2022-11-28T17:21:45.093Z,3.81
2022-11-28T17:24:21.116Z,3.80
2022-11-28T17:26:48.850Z,3.82
2022-11-28T17:29:16.480Z,3.83
2022-11-28T17:31:46.689Z,3.79
2022-11-28T17:34:25.165Z,3.79
2022-11-28T17:36:52.391Z,3.71
2022-11-28T17:39:20.541Z,3.70
2022-11-28T17:41:48.061Z,3.72
2022-11-28T17:44:18.688Z,3.75
2022-11-28T17:46:45.866Z,3.72
2022-11-28T17:49:13.150Z,3.66
2022-11-28T17:51:40.008Z,3.71
2022-11-28T17:54:07.608Z,3.73
2022-11-28T17:56:34.273Z,3.73
2022-11-28T17:59:01.034Z,3.73
2022-11-28T18:01:30.936Z,3.74
2022-11-28T18:03:58.962Z,3.76
2022-11-28T18:06:25.669Z,3.69
2022-11-28T18:08:53.105Z,3.66
2022-11-28T18:11:20.078Z,3.78
2022-11-28T18:13:48.447Z,3.75
2022-11-28T18:16:18.235Z,3.77
2022-11-28T18:18:45.692Z,3.76
2022-11-28T18:21:13.670Z,3.80
2022-11-28T18:23:41.694Z,3.86
2022-11-28T18:26:12.841Z,3.87
2022-11-28T18:28:40.115Z,3.86
2022-11-28T18:31:16.879Z,3.89
2022-11-28T18:33:44.004Z,3.89
2022-11-28T18:36:17.597Z,3.84
2022-11-28T18:38:47.071Z,3.79
2022-11-28T18:41:16.694Z,3.79
2022-11-28T18:43:44.068Z,3.84
2022-11-28T18:46:16.471Z,3.76
2022-11-28T18:48:45.206Z,3.78
2022-11-28T18:51:28.782Z,3.75
2022-11-28T18:53:57.366Z,3.78
2022-11-28T18:56:25.607Z,3.79
2022-11-28T18:58:53.897Z,3.80
2022-11-28T19:01:30.630Z,3.80
2022-11-28T19:04:00.167Z,3.85
2022-11-28T19:06:27.688Z,3.88
2022-11-28T19:08:57.806Z,3.90
2022-11-28T19:11:24.935Z,3.89
2022-11-28T19:13:53.331Z,3.89
2022-11-28T19:16:21.269Z,3.88
2022-11-28T19:18:48.254Z,3.89
2022-11-28T19:21:26.902Z,3.92
2022-11-28T19:23:55.152Z,3.90
2022-11-28T19:26:24.590Z,3.85
2022-11-28T19:28:51.254Z,3.82
2022-11-28T19:31:23.864Z,3.80
2022-11-28T19:34:04.408Z,3.78
2022-11-28T19:36:37.605Z,3.75
2022-11-28T19:39:05.182Z,3.73
2022-11-28T19:41:32.399Z,3.65
2022-11-28T19:43:59.513Z,3.65
2022-11-28T19:46:34.980Z,3.67
2022-11-28T19:49:04.353Z,3.65
2022-11-28T19:51:31.490Z,3.71
2022-11-28T19:54:03.144Z,3.70
2022-11-28T19:56:32.417Z,3.73
2022-11-28T19:58:59.614Z,3.72
2022-11-28T20:01:28.161Z,3.69
2022-11-28T20:03:55.444Z,3.68
2022-11-28T20:06:24.510Z,3.67
2022-11-28T20:08:53.228Z,3.71
2022-11-28T20:11:24.756Z,3.72
2022-11-28T20:14:00.303Z,3.76
2022-11-28T20:16:30.286Z,3.80
2022-11-28T20:19:00.416Z,3.79
2022-11-28T20:21:28.467Z,3.80
2022-11-28T20:23:58.263Z,3.89
2022-11-28T20:26:26.851Z,3.81
2022-11-28T20:28:56.107Z,3.82
2022-11-28T20:31:33.778Z,3.85
2022-11-28T20:34:01.763Z,3.85
2022-11-28T20:36:30.651Z,3.87
2022-11-28T20:38:58.755Z,3.82
2022-11-28T20:41:26.733Z,3.87
2022-11-28T20:43:53.643Z,3.88
2022-11-28T20:46:30.312Z,3.87
2022-11-28T20:48:59.548Z,3.93
2022-11-28T20:51:28.166Z,3.94
2022-11-28T20:53:56.271Z,3.99
2022-11-28T20:56:25.334Z,3.99
2022-11-28T20:58:52.376Z,3.96
2022-11-28T21:01:22.050Z,3.98
2022-11-28T21:03:49.439Z,4.05
2022-11-28T21:06:16.242Z,4.09
2022-11-28T21:08:43.326Z,4.12
2022-11-28T21:11:30.909Z,4.20
2022-11-28T21:14:02.226Z,4.22
2022-11-28T21:16:31.681Z,4.27
2022-11-28T21:19:07.612Z,4.22
2022-11-28T21:21:35.611Z,4.21
2022-11-28T21:24:09.590Z,4.28
2022-11-28T21:26:41.418Z,4.23
2022-11-28T21:29:12.464Z,4.27
2022-11-28T21:31:44.277Z,4.28
2022-11-28T21:34:16.702Z,4.22
2022-11-28T21:36:43.727Z,4.22
2022-11-28T21:39:13.594Z,4.20
2022-11-28T21:41:40.516Z,4.20
2022-11-28T21:44:07.772Z,4.23
2022-11-28T21:46:34.626Z,4.23
2022-11-28T21:49:01.809Z,4.25
2022-11-28T21:51:28.760Z,4.25
2022-11-28T21:53:57.615Z,4.24
2022-11-28T21:56:25.336Z,4.25
2022-11-28T21:58:53.385Z,4.27
2022-11-28T22:01:23.046Z,4.29
2022-11-28T22:03:49.942Z,4.33
2022-11-28T22:06:25.696Z,4.29
2022-11-28T22:08:54.280Z,4.27
2022-11-28T22:11:22.778Z,4.23
2022-11-28T22:13:50.328Z,4.24
2022-11-28T22:16:20.000Z,4.24
2022-11-28T22:18:49.019Z,4.25
2022-11-28T22:24:06.181Z,4.23
2022-11-28T22:26:33.691Z,4.27
2022-11-28T22:29:01.027Z,4.27
2022-11-28T22:31:27.978Z,4.23
2022-11-28T22:33:54.851Z,4.26
2022-11-28T22:36:23.143Z,4.27
2022-11-28T22:38:55.012Z,4.25
2022-11-28T22:41:28.369Z,4.21
2022-11-28T22:44:00.344Z,4.22
2022-11-28T22:46:28.033Z,4.24
2022-11-28T22:48:54.790Z,4.24
2022-11-28T22:51:24.368Z,4.23
2022-11-28T22:53:59.444Z,4.22
2022-11-28T22:56:28.018Z,4.22
2022-11-28T22:58:55.111Z,4.18
2022-11-28T23:01:29.605Z,4.19
2022-11-28T23:03:57.018Z,4.19
2022-11-28T23:06:26.439Z,4.23
2022-11-28T23:08:55.718Z,4.20
2022-11-28T23:11:26.603Z,4.23
2022-11-28T23:13:53.757Z,4.22
2022-11-28T23:16:25.098Z,4.21
2022-11-28T23:18:54.211Z,4.21
2022-11-28T23:21:23.145Z,4.22
2022-11-28T23:23:50.172Z,4.26
2022-11-28T23:26:19.674Z,4.27
2022-11-28T23:28:47.341Z,4.31
2022-11-28T23:31:17.513Z,4.32
2022-11-28T23:33:44.813Z,4.32
2022-11-28T23:36:22.526Z,4.29
2022-11-28T23:38:51.501Z,4.29
2022-11-28T23:41:18.975Z,4.31
2022-11-28T23:43:46.036Z,4.31
2022-11-28T23:46:14.426Z,4.29
2022-11-28T23:48:41.230Z,4.28
2022-11-28T23:51:08.414Z,4.30
2022-11-28T23:53:35.392Z,4.27
2022-11-28T23:56:07.409Z,4.30
2022-11-28T23:58:34.616Z,4.34
